createdAt,value
2023-03-11T00:00:51.124Z,59695.00
2023-03-11T00:03:23.314Z,59691.38
2023-03-11T00:05:52.659Z,59693.56
2023-03-11T00:08:23.294Z,59692.47
2023-03-11T00:10:56.203Z,59693.91
2023-03-11T00:13:24.766Z,59689.78
2023-03-11T00:15:56.393Z,59696.44
2023-03-11T00:18:27.215Z,59695.00
2023-03-11T00:20:57.088Z,59684.91
2023-03-11T00:23:27.186Z,59687.47
2023-03-11T00:25:59.714Z,59686.00
2023-03-11T00:28:28.257Z,59678.47
2023-03-11T00:30:56.712Z,59670.94
2023-03-11T00:33:25.131Z,59672.75
2023-03-11T00:35:53.562Z,59667.69
2023-03-11T00:38:22.894Z,59665.91
2023-03-11T00:40:51.773Z,59657.47
2023-03-11T00:43:21.537Z,59659.84
2023-03-11T00:45:50.011Z,59651.00
2023-03-11T00:48:18.441Z,59648.31
2023-03-11T00:50:46.864Z,59655.00
2023-03-11T00:53:15.238Z,59649.63
2023-03-11T00:55:43.613Z,59646.53
2023-03-11T00:58:12.934Z,59640.78
2023-03-11T01:00:42.982Z,59642.22
2023-03-11T01:03:11.911Z,59636.16
2023-03-11T01:05:40.582Z,59632.00
2023-03-11T01:08:08.977Z,59634.00
2023-03-11T01:10:37.777Z,59633.63
2023-03-11T01:13:06.301Z,59628.94
2023-03-11T01:15:37.005Z,59629.31
2023-03-11T01:18:07.875Z,59630.94
2023-03-11T01:20:37.674Z,59624.25
2023-03-11T01:23:06.812Z,59626.78
2023-03-11T01:25:36.059Z,59631.84
2023-03-11T01:28:04.700Z,59625.00
2023-03-11T01:30:33.152Z,59621.63
2023-03-11T01:33:01.957Z,59625.72
2023-03-11T01:35:32.794Z,59617.25
2023-03-11T01:38:01.608Z,59627.00
2023-03-11T01:40:32.736Z,59621.78
2023-03-11T01:43:01.897Z,59621.09
2023-03-11T01:46:03.754Z,59622.16
2023-03-11T01:48:32.290Z,59614.94
2023-03-11T01:51:02.604Z,59619.63
2023-03-11T01:53:31.066Z,59620.00
2023-03-11T01:55:59.646Z,59617.47
2023-03-11T01:58:32.080Z,59613.16
2023-03-11T02:01:02.251Z,59608.84
2023-03-11T02:03:34.576Z,59616.78
2023-03-11T02:06:08.222Z,59620.69
2023-03-11T02:08:36.860Z,59626.47
2023-03-11T02:11:08.776Z,59621.78
2023-03-11T02:13:38.477Z,59617.78
2023-03-11T02:16:07.802Z,59622.88
2023-03-11T02:18:36.802Z,59618.94
2023-03-11T02:21:15.155Z,59621.09
2023-03-11T02:23:50.687Z,59628.63
2023-03-11T02:26:25.944Z,59625.16
2023-03-11T02:28:57.268Z,59627.53
2023-03-11T02:31:27.071Z,59630.78
2023-03-11T02:33:57.727Z,59627.34
2023-03-11T02:36:35.062Z,59630.78
2023-03-11T02:39:04.596Z,59630.78
2023-03-11T02:41:34.028Z,59629.31
2023-03-11T02:44:05.970Z,59623.53
2023-03-11T02:46:34.551Z,59626.78
2023-03-11T02:49:03.189Z,59630.22
2023-03-11T02:51:31.772Z,59627.53
2023-03-11T02:54:03.979Z,59628.78
2023-03-11T02:56:32.744Z,59630.22
2023-03-11T02:59:01.126Z,59624.47
2023-03-11T03:01:30.900Z,59624.63
2023-03-11T03:03:59.610Z,59628.78
2023-03-11T03:06:28.658Z,59629.72
2023-03-11T03:08:57.403Z,59621.56
2023-03-11T03:11:25.868Z,59626.06
2023-03-11T03:13:54.316Z,59624.09
2023-03-11T03:16:22.780Z,59627.53
2023-03-11T03:18:52.666Z,59631.31
2023-03-11T03:21:21.081Z,59629.72
2023-03-11T03:23:49.569Z,59632.91
2023-03-11T03:26:18.001Z,59631.16
2023-03-11T03:28:46.431Z,59620.84
2023-03-11T03:31:14.847Z,59625.00
2023-03-11T03:33:43.362Z,59623.78
2023-03-11T03:36:15.632Z,59622.88
2023-03-11T03:38:44.574Z,59610.31
2023-03-11T03:41:15.497Z,59617.47
2023-03-11T03:43:43.909Z,59609.94
2023-03-11T03:46:12.442Z,59603.63
2023-03-11T03:48:40.891Z,59607.09
2023-03-11T03:51:11.496Z,59601.88
2023-03-11T03:53:42.335Z,59598.81
2023-03-11T03:56:12.968Z,59604.41
2023-03-11T03:58:41.666Z,59610.88
2023-03-11T04:01:11.234Z,59609.94
2023-03-11T04:03:40.001Z,59614.63
2023-03-11T04:06:09.964Z,59614.63
2023-03-11T04:08:40.459Z,59604.19
2023-03-11T04:11:10.258Z,59608.34
2023-03-11T04:13:38.776Z,59604.03
2023-03-11T04:16:09.135Z,59611.38
2023-03-11T04:18:37.694Z,59611.38
2023-03-11T04:21:06.696Z,59609.25
2023-03-11T04:23:35.720Z,59606.31
2023-03-11T04:26:05.040Z,59608.34
2023-03-11T04:28:34.838Z,59608.50
2023-03-11T04:31:03.305Z,59608.84
2023-03-11T04:33:32.365Z,59606.72
2023-03-11T04:36:01.041Z,59609.25
2023-03-11T04:38:29.557Z,59603.09
2023-03-11T04:41:01.311Z,59609.00
2023-03-11T04:43:30.061Z,59610.09
2023-03-11T04:45:59.896Z,59610.88
2023-03-11T04:48:28.320Z,59607.78
2023-03-11T04:50:56.830Z,59615.34
2023-03-11T04:53:25.762Z,59614.78
2023-03-11T04:55:54.297Z,59609.94
2023-03-11T04:58:22.692Z,59614.94
2023-03-11T05:00:51.321Z,59610.63
2023-03-11T05:03:21.166Z,59618.94
2023-03-11T05:05:49.645Z,59611.72
2023-03-11T05:08:18.146Z,59614.25
2023-03-11T05:10:46.925Z,59612.09
2023-03-11T05:13:15.363Z,59608.50
2023-03-11T05:15:43.976Z,59606.31
2023-03-11T05:18:12.457Z,59610.63
2023-03-11T05:20:42.317Z,59615.34
2023-03-11T05:23:10.880Z,59618.00
2023-03-11T05:25:39.310Z,59618.00
2023-03-11T05:28:07.788Z,59620.00
2023-03-11T05:30:36.240Z,59612.25
2023-03-11T05:33:04.846Z,59621.78
2023-03-11T05:35:33.311Z,59612.63
2023-03-11T05:38:03.235Z,59610.63
2023-03-11T05:40:31.649Z,59614.09
2023-03-11T05:43:00.100Z,59620.69
2023-03-11T05:45:28.664Z,59616.72
2023-03-11T05:47:57.066Z,59617.09
2023-03-11T05:50:25.463Z,59620.00
2023-03-11T05:52:53.893Z,59618.94
2023-03-11T05:55:23.712Z,59618.16
2023-03-11T05:57:52.686Z,59618.16
2023-03-11T06:00:21.993Z,59617.09
2023-03-11T06:02:50.600Z,59616.78
2023-03-11T06:05:19.114Z,59606.31
2023-03-11T06:07:47.797Z,59612.09
2023-03-11T06:10:16.393Z,59621.41
2023-03-11T06:12:46.200Z,59612.25
2023-03-11T06:15:14.632Z,59607.41
2023-03-11T06:17:43.070Z,59602.78
2023-03-11T06:20:12.861Z,59601.16
2023-03-11T06:22:41.350Z,59600.25
2023-03-11T06:25:10.386Z,59608.19
2023-03-11T06:27:38.922Z,59598.41
2023-03-11T06:30:10.227Z,59607.41
2023-03-11T06:32:38.786Z,59609.25
2023-03-11T06:35:07.794Z,59614.78
2023-03-11T06:37:38.027Z,59624.31
2023-03-11T06:40:08.438Z,59610.63
2023-03-11T06:42:37.192Z,59615.34
2023-03-11T06:45:06.313Z,59609.56
2023-03-11T06:47:36.129Z,59623.78
2023-03-11T06:50:07.336Z,59627.53
2023-03-11T06:52:36.134Z,59628.41
2023-03-11T06:55:04.983Z,59632.41
2023-03-11T06:57:34.022Z,59629.16
2023-03-11T07:00:02.521Z,59626.47
2023-03-11T07:02:30.941Z,59627.69
2023-03-11T07:05:00.770Z,59628.78
2023-03-11T07:07:30.340Z,59621.94
2023-03-11T07:09:58.828Z,59625.72
2023-03-11T07:12:27.234Z,59629.63
2023-03-11T07:14:56.691Z,59627.69
2023-03-11T07:17:25.984Z,59625.00
2023-03-11T07:19:54.827Z,59620.69
2023-03-11T07:22:24.624Z,59613.31
2023-03-11T07:24:53.238Z,59613.88
2023-03-11T07:27:22.484Z,59616.78
2023-03-11T07:29:51.016Z,59627.53
2023-03-11T07:32:19.596Z,59626.47
2023-03-11T07:34:48.061Z,59623.94
2023-03-11T07:37:16.489Z,59629.88
2023-03-11T07:39:46.310Z,59629.31
2023-03-11T07:42:15.034Z,59625.16
2023-03-11T07:44:43.504Z,59627.16
2023-03-11T07:47:11.918Z,59620.31
2023-03-11T07:49:40.450Z,59621.09
2023-03-11T07:52:08.893Z,59634.84
2023-03-11T07:54:37.395Z,59640.78
2023-03-11T07:57:08.666Z,59644.75
2023-03-11T07:59:37.067Z,59634.69
2023-03-11T08:02:05.535Z,59645.47
2023-03-11T08:04:34.009Z,59640.78
2023-03-11T08:07:02.447Z,59636.47
2023-03-11T08:09:31.068Z,59632.16
2023-03-11T08:11:59.463Z,59641.00
2023-03-11T08:14:29.278Z,59638.06
2023-03-11T08:16:57.675Z,59650.47
2023-03-11T08:19:26.306Z,59646.16
2023-03-11T08:21:54.738Z,59657.16
2023-03-11T08:24:23.219Z,59660.56
2023-03-11T08:26:51.609Z,59665.22
2023-03-11T08:29:20.071Z,59659.09
2023-03-11T08:31:49.885Z,59665.78
2023-03-11T08:34:18.383Z,59667.69
2023-03-11T08:36:46.920Z,59677.22
2023-03-11T08:39:15.995Z,59685.31
2023-03-11T08:41:44.432Z,59701.31
2023-03-11T08:44:12.836Z,59699.69
2023-03-11T08:46:41.429Z,59702.22
2023-03-11T08:49:11.247Z,59700.41
2023-03-11T08:51:39.627Z,59708.09
2023-03-11T08:54:08.082Z,59709.00
2023-03-11T08:56:36.506Z,59707.03
2023-03-11T08:59:05.021Z,59695.69
2023-03-11T09:01:33.438Z,59701.09
2023-03-11T09:04:02.094Z,59699.69
2023-03-11T09:06:31.967Z,59692.47
2023-03-11T09:09:00.425Z,59712.63
2023-03-11T09:11:29.031Z,59707.03
2023-03-11T09:13:57.483Z,59710.63
2023-03-11T09:16:26.538Z,59714.78
2023-03-11T09:18:55.240Z,59718.72
2023-03-11T09:21:23.943Z,59713.31
2023-03-11T09:23:53.764Z,59723.41
2023-03-11T09:26:22.208Z,59728.25
2023-03-11T09:28:50.625Z,59730.16
2023-03-11T09:31:20.018Z,59747.66
2023-03-11T09:33:50.039Z,59738.41
2023-03-11T09:36:20.941Z,59750.66
2023-03-11T09:38:49.692Z,59743.66
2023-03-11T09:41:29.570Z,59756.03
2023-03-11T09:44:12.154Z,59758.19
2023-03-11T09:47:04.845Z,59756.03
2023-03-11T09:49:45.632Z,59747.81
2023-03-11T09:52:16.022Z,59748.72
2023-03-11T09:54:47.868Z,59745.25
2023-03-11T09:57:21.484Z,59739.72
2023-03-11T09:59:50.227Z,59734.50
2023-03-11T10:02:20.791Z,59734.50
2023-03-11T10:04:57.638Z,59749.59
2023-03-11T10:07:32.470Z,59752.97
2023-03-11T10:10:00.976Z,59746.72
2023-03-11T10:12:43.955Z,59746.34
2023-03-11T10:15:22.029Z,59750.66
2023-03-11T10:18:24.297Z,59777.97
2023-03-11T10:20:59.726Z,59776.38
2023-03-11T10:23:38.344Z,59772.06
2023-03-11T10:26:13.881Z,59770.44
2023-03-11T10:28:47.845Z,59770.97
2023-03-11T10:31:27.985Z,59785.38
2023-03-11T10:34:01.320Z,59784.06
2023-03-11T10:36:36.925Z,59759.06
2023-03-11T10:39:07.571Z,59778.28
2023-03-11T10:41:43.898Z,59785.00
2023-03-11T10:44:18.211Z,59783.53
2023-03-11T10:46:46.628Z,59801.00
2023-03-11T10:49:16.576Z,59795.00
2023-03-11T10:51:47.648Z,59818.25
2023-03-11T10:54:27.960Z,59798.47
2023-03-11T10:56:58.887Z,59786.06
2023-03-11T10:59:32.532Z,59767.19
2023-03-11T11:02:02.975Z,59763.59
2023-03-11T11:04:36.986Z,59778.69
2023-03-11T11:07:23.155Z,59782.84
2023-03-11T11:10:15.927Z,59772.97
2023-03-11T11:12:56.250Z,59760.38
2023-03-11T11:15:29.254Z,59763.28
2023-03-11T11:17:59.770Z,59788.06
2023-03-11T11:20:30.049Z,59780.47
2023-03-11T11:23:01.041Z,59792.41
2023-03-11T11:25:33.679Z,59794.84
2023-03-11T11:28:05.271Z,59843.38
2023-03-11T11:30:35.128Z,59862.41
2023-03-11T11:33:24.479Z,59852.03
2023-03-11T11:35:55.235Z,59826.13
2023-03-11T11:38:26.200Z,59814.25
2023-03-11T11:40:57.140Z,59815.34
2023-03-11T11:43:36.825Z,59816.81
2023-03-11T11:46:13.739Z,59798.63
2023-03-11T11:48:48.627Z,59808.34
2023-03-11T11:51:21.834Z,59829.38
2023-03-11T11:53:57.665Z,59837.84
2023-03-11T11:56:27.289Z,59827.59
2023-03-11T11:58:55.875Z,59808.03
2023-03-11T12:01:40.184Z,59806.72
2023-03-11T12:04:31.188Z,59809.25
2023-03-11T12:07:12.006Z,59798.63
2023-03-11T12:09:48.637Z,59833.28
2023-03-11T12:12:26.754Z,59838.69
2023-03-11T12:15:02.279Z,59844.84
2023-03-11T12:17:33.779Z,59835.53
2023-03-11T12:20:07.278Z,59834.59
2023-03-11T12:22:58.527Z,59836.91
2023-03-11T12:25:34.902Z,59815.88
2023-03-11T12:28:15.369Z,59805.09
2023-03-11T12:30:47.551Z,59792.69
2023-03-11T12:33:31.881Z,59813.72
2023-03-11T12:36:01.883Z,59812.88
2023-03-11T12:38:34.244Z,59813.19
2023-03-11T12:41:09.948Z,59808.34
2023-03-11T12:44:02.064Z,59810.34
2023-03-11T12:47:12.027Z,59824.69
2023-03-11T12:49:43.318Z,59837.31
2023-03-11T12:52:21.844Z,59846.63
2023-03-11T12:55:11.317Z,59849.72
2023-03-11T12:57:52.046Z,59843.22
2023-03-11T13:00:30.540Z,59824.53
2023-03-11T13:03:29.619Z,59822.19
2023-03-11T13:06:05.829Z,59875.75
2023-03-11T13:08:45.216Z,59909.59
2023-03-11T13:11:37.591Z,59874.69
2023-03-11T13:14:24.942Z,59861.59
2023-03-11T13:16:53.430Z,59839.75
2023-03-11T13:19:51.011Z,59851.88
2023-03-11T13:23:06.592Z,59876.63
2023-03-11T13:25:40.162Z,59858.34
2023-03-11T13:28:36.926Z,59856.34
2023-03-11T13:31:35.414Z,59857.41
2023-03-11T13:34:14.172Z,59843.94
2023-03-11T13:36:52.449Z,59850.63
2023-03-11T13:39:35.671Z,59858.50
2023-03-11T13:42:05.704Z,59884.41
2023-03-11T13:44:38.077Z,59895.19
2023-03-11T13:47:12.522Z,59908.69
2023-03-11T13:49:44.537Z,59932.59
2023-03-11T13:52:17.966Z,59927.56
2023-03-11T13:54:50.204Z,59943.25
2023-03-11T13:57:27.263Z,59950.78
2023-03-11T13:59:57.371Z,59926.50
2023-03-11T14:02:27.862Z,59884.25
2023-03-11T14:04:59.881Z,59861.75
2023-03-11T14:07:31.911Z,59859.56
2023-03-11T14:10:23.380Z,59857.97
2023-03-11T14:12:52.709Z,59868.97
2023-03-11T14:15:24.594Z,59866.97
2023-03-11T14:17:54.400Z,59856.72
2023-03-11T14:20:25.453Z,59857.03
2023-03-11T14:22:56.064Z,59873.28
2023-03-11T14:25:28.031Z,59921.63
2023-03-11T14:27:58.770Z,59927.03
2023-03-11T14:30:29.496Z,59951.88
2023-03-11T14:33:01.080Z,59945.38
2023-03-11T14:35:30.338Z,59927.03
2023-03-11T14:37:59.003Z,59930.66
2023-03-11T14:40:31.322Z,59909.59
2023-03-11T14:43:03.082Z,59877.22
2023-03-11T14:45:33.951Z,59896.13
2023-03-11T14:48:08.202Z,59916.25
2023-03-11T14:50:38.169Z,59930.66
2023-03-11T14:53:10.138Z,59940.53
2023-03-11T14:55:44.982Z,59988.06
2023-03-11T14:58:20.183Z,60017.22
2023-03-11T15:00:52.566Z,60014.75
2023-03-11T15:03:24.367Z,59978.31
2023-03-11T15:05:55.826Z,59982.66
2023-03-11T15:08:29.717Z,59949.16
2023-03-11T15:11:05.476Z,59938.16
2023-03-11T15:13:34.453Z,59904.91
2023-03-11T15:16:05.507Z,59886.19
2023-03-11T15:18:37.686Z,59872.22
2023-03-11T15:21:14.128Z,59861.50
2023-03-11T15:23:47.522Z,59847.69
2023-03-11T15:26:23.162Z,59841.78
2023-03-11T15:28:59.249Z,59834.75
2023-03-11T15:31:34.322Z,59834.75
2023-03-11T15:34:30.649Z,59853.50
2023-03-11T15:37:18.337Z,59854.72
2023-03-11T15:39:51.203Z,59876.59
2023-03-11T15:42:24.397Z,59870.34
2023-03-11T15:45:17.321Z,59890.56
2023-03-11T15:47:46.660Z,59880.22
2023-03-11T15:50:24.720Z,59882.78
2023-03-11T15:52:55.918Z,59896.28
2023-03-11T15:55:25.362Z,59890.88
2023-03-11T15:58:02.300Z,59894.88
2023-03-11T16:00:30.904Z,59898.97
2023-03-11T16:02:59.594Z,59895.56
2023-03-11T16:05:28.277Z,59890.88
2023-03-11T16:07:56.687Z,59876.31
2023-03-11T16:10:25.617Z,59858.88
2023-03-11T16:12:56.143Z,59855.25
2023-03-11T16:15:28.513Z,59863.56
2023-03-11T16:17:59.297Z,59856.72
2023-03-11T16:20:30.065Z,59848.25
2023-03-11T16:23:00.130Z,59839.25
2023-03-11T16:25:31.973Z,59844.31
2023-03-11T16:28:02.462Z,59841.22
2023-03-11T16:30:32.551Z,59843.38
2023-03-11T16:33:04.366Z,59840.16
2023-03-11T16:35:33.762Z,59831.31
2023-03-11T16:38:02.677Z,59837.63
2023-03-11T16:40:32.673Z,59843.78
2023-03-11T16:43:04.745Z,59849.72
2023-03-11T16:45:33.377Z,59845.41
2023-03-11T16:48:01.899Z,59839.44
2023-03-11T16:50:30.921Z,59834.75
2023-03-11T16:53:00.136Z,59836.53
2023-03-11T16:55:29.867Z,59832.47
2023-03-11T16:57:58.467Z,59835.16
2023-03-11T17:00:29.556Z,59823.97
2023-03-11T17:02:58.082Z,59821.59
2023-03-11T17:05:26.825Z,59819.28
2023-03-11T17:08:00.116Z,59822.91
2023-03-11T17:10:29.156Z,59816.44
2023-03-11T17:12:57.782Z,59822.91
2023-03-11T17:15:26.258Z,59823.97
2023-03-11T17:17:56.263Z,59823.22
2023-03-11T17:20:25.037Z,59816.44
2023-03-11T17:22:53.520Z,59815.34
2023-03-11T17:25:22.147Z,59818.25
2023-03-11T17:27:50.696Z,59805.09
2023-03-11T17:30:35.611Z,59818.81
2023-03-11T17:33:06.570Z,59807.78
2023-03-11T17:35:35.085Z,59808.88
2023-03-11T17:38:03.567Z,59805.25
2023-03-11T17:40:32.746Z,59797.00
2023-03-11T17:43:01.204Z,59791.09
2023-03-11T17:45:29.670Z,59796.16
2023-03-11T17:47:58.143Z,59798.88
2023-03-11T17:50:28.079Z,59777.06
2023-03-11T17:52:56.699Z,59782.28
2023-03-11T17:55:26.333Z,59775.59
2023-03-11T17:57:54.761Z,59770.06
2023-03-11T18:00:23.561Z,59773.28
2023-03-11T18:02:52.534Z,59765.97
2023-03-11T18:05:21.225Z,59748.81
2023-03-11T18:07:51.182Z,59761.44
2023-03-11T18:10:19.891Z,59776.97
2023-03-11T18:12:48.553Z,59763.06
2023-03-11T18:15:19.253Z,59757.44
2023-03-11T18:17:48.827Z,59745.81
2023-03-11T18:20:17.633Z,59752.03
2023-03-11T18:22:46.993Z,59748.88
2023-03-11T18:25:17.185Z,59741.88
2023-03-11T18:27:45.582Z,59750.09
2023-03-11T18:30:14.538Z,59749.44
2023-03-11T18:32:43.093Z,59744.72
2023-03-11T18:35:14.300Z,59745.56
2023-03-11T18:37:42.684Z,59740.94
2023-03-11T18:40:12.618Z,59737.19
2023-03-11T18:42:42.426Z,59735.94
2023-03-11T18:45:12.353Z,59741.88
2023-03-11T18:47:40.804Z,59730.31
2023-03-11T18:50:10.576Z,59739.19
2023-03-11T18:52:38.949Z,59733.41
2023-03-11T18:55:07.800Z,59725.31
2023-03-11T18:57:36.258Z,59722.09
2023-03-11T19:00:07.114Z,59733.81
2023-03-11T19:02:35.632Z,59732.03
2023-03-11T19:05:04.403Z,59736.34
2023-03-11T19:07:32.880Z,59733.97
2023-03-11T19:10:01.595Z,59727.16
2023-03-11T19:12:32.442Z,59732.72
2023-03-11T19:15:00.905Z,59739.56
2023-03-11T19:17:30.696Z,59720.50
2023-03-11T19:19:59.190Z,59732.72
2023-03-11T19:22:27.595Z,59727.31
2023-03-11T19:24:56.037Z,59721.94
2023-03-11T19:27:24.439Z,59729.66
2023-03-11T19:29:52.824Z,59723.72
2023-03-11T19:32:21.321Z,59715.09
2023-03-11T19:34:51.586Z,59719.41
2023-03-11T19:37:20.015Z,59711.47
2023-03-11T19:39:48.422Z,59719.94
2023-03-11T19:42:16.801Z,59723.19
2023-03-11T19:44:45.286Z,59720.50
2023-03-11T19:47:13.807Z,59729.31
2023-03-11T19:49:42.191Z,59720.84
2023-03-11T19:52:11.970Z,59709.16
2023-03-11T19:54:40.506Z,59717.25
2023-03-11T19:57:09.061Z,59711.84
2023-03-11T19:59:37.471Z,59706.84
2023-03-11T20:02:07.410Z,59712.56
2023-03-11T20:04:36.127Z,59710.78
2023-03-11T20:07:04.801Z,59711.34
2023-03-11T20:09:34.895Z,59707.03
2023-03-11T20:12:03.287Z,59712.25
2023-03-11T20:14:31.828Z,59701.09
2023-03-11T20:17:00.216Z,59696.78
2023-03-11T20:19:28.676Z,59707.53
2023-03-11T20:21:57.180Z,59715.63
2023-03-11T20:24:25.616Z,59714.00
2023-03-11T20:26:55.406Z,59706.47
2023-03-11T20:29:23.896Z,59714.41
2023-03-11T20:31:52.859Z,59705.25
2023-03-11T20:34:21.297Z,59706.47
2023-03-11T20:36:50.966Z,59712.25
2023-03-11T20:39:19.423Z,59710.09
2023-03-11T20:41:47.934Z,59715.09
2023-03-11T20:44:17.736Z,59714.00
2023-03-11T20:46:46.421Z,59710.78
2023-03-11T20:49:14.938Z,59704.31
2023-03-11T20:51:43.984Z,59704.69
2023-03-11T20:54:12.561Z,59702.53
2023-03-11T20:56:41.499Z,59708.63
2023-03-11T20:59:13.081Z,59713.31
2023-03-11T21:01:42.911Z,59713.31
2023-03-11T21:04:11.655Z,59712.94
2023-03-11T21:06:41.964Z,59713.72
2023-03-11T21:09:14.598Z,59704.00
2023-03-11T21:11:43.176Z,59706.16
2023-03-11T21:14:11.765Z,59694.06
2023-03-11T21:16:40.269Z,59702.94
2023-03-11T21:19:11.586Z,59707.78
2023-03-11T21:21:40.669Z,59710.78
2023-03-11T21:24:09.558Z,59701.47
2023-03-11T21:26:38.509Z,59706.16
2023-03-11T21:29:07.110Z,59695.69
2023-03-11T21:31:35.637Z,59698.22
2023-03-11T21:34:04.196Z,59693.56
2023-03-11T21:36:34.086Z,59701.84
2023-03-11T21:39:03.880Z,59704.31
2023-03-11T21:41:32.492Z,59709.56
2023-03-11T21:44:01.156Z,59706.31
2023-03-11T21:46:31.658Z,59704.16
2023-03-11T21:49:01.274Z,59695.69
2023-03-11T21:51:30.014Z,59701.31
2023-03-11T21:54:00.224Z,59699.31
2023-03-11T21:56:28.883Z,59695.69
2023-03-11T21:58:57.531Z,59702.16
2023-03-11T22:01:26.241Z,59693.91
2023-03-11T22:03:55.397Z,59692.63
2023-03-11T22:06:23.921Z,59690.31
2023-03-11T22:08:52.814Z,59697.16
2023-03-11T22:11:22.759Z,59702.94
2023-03-11T22:13:52.591Z,59701.63
2023-03-11T22:16:22.659Z,59697.16
2023-03-11T22:18:52.556Z,59699.63
2023-03-11T22:21:21.786Z,59702.69
2023-03-11T22:23:50.410Z,59703.25
2023-03-11T22:26:18.963Z,59707.53
2023-03-11T22:28:48.765Z,59697.88
2023-03-11T22:31:19.104Z,59697.88
2023-03-11T22:33:48.765Z,59704.31
2023-03-11T22:36:17.223Z,59700.00
2023-03-11T22:38:45.808Z,59700.78
2023-03-11T22:41:16.854Z,59699.00
2023-03-11T22:43:45.273Z,59692.47
2023-03-11T22:46:15.486Z,59693.00
2023-03-11T22:48:44.081Z,59699.69
2023-03-11T22:51:12.975Z,59704.53
2023-03-11T22:53:41.375Z,59693.22
2023-03-11T22:56:12.289Z,59689.22
2023-03-11T22:58:40.703Z,59683.16
2023-03-11T23:01:10.297Z,59689.63
2023-03-11T23:03:40.504Z,59681.69
2023-03-11T23:06:11.781Z,59673.06
2023-03-11T23:08:40.198Z,59673.63
2023-03-11T23:11:12.317Z,59674.16
2023-03-11T23:13:41.973Z,59686.00
2023-03-11T23:16:14.139Z,59690.00
2023-03-11T23:18:45.577Z,59672.00
2023-03-11T23:21:18.617Z,59676.00
2023-03-11T23:23:47.470Z,59673.78
2023-03-11T23:26:17.388Z,59678.84
2023-03-11T23:28:46.428Z,59681.38
2023-03-11T23:31:16.574Z,59673.78
2023-03-11T23:33:47.223Z,59676.31
2023-03-11T23:36:17.759Z,59664.84
2023-03-11T23:38:47.202Z,59676.16
2023-03-11T23:41:18.092Z,59680.84
2023-03-11T23:43:46.580Z,59669.84
2023-03-11T23:46:15.732Z,59683.91
2023-03-11T23:48:44.208Z,59670.06
2023-03-11T23:51:14.260Z,59665.00
2023-03-11T23:53:42.688Z,59660.72
2023-03-11T23:56:13.499Z,59655.84
2023-03-11T23:58:42.613Z,59671.31
